Time;durP1;ratioP1;P1;durP2;ratioP2;P2;SDS_P1;SDS_P2;PMS_P1;PMS_P2;Temp;Humidity;BMP_temperature;BMP_pressure;BME280_temperature;BME280_humidity;BME280_pressure;Samples;Min_cycle;Max_cycle;Signal;HPM_P1;HPM_P2
2022/12/15 00:39:42;;;;;;;;;;;;;;;4.73;68.86;99290.06;4954216;28;4535;-90
2022/12/15 00:42:08;;;;;;;;;;;;;;;4.58;69.19;99294.88;4953423;28;4572;-89
2022/12/15 00:44:36;;;;;;;;;;;;;;;4.57;69.44;99293.25;4950870;28;4705;-90
2022/12/15 00:47:01;;;;;;;;;;;;;;;4.56;69.22;99294.28;4937715;28;4406;-90
2022/12/15 01:22:15;;;;;;;;;;;;;;;4.54;69.17;99301.66;4936154;28;4551;-90
2022/12/15 01:24:41;;;;;;;;;;;;;;;4.63;69.03;99303.06;4947966;28;4635;-90
2022/12/15 01:27:07;;;;;;;;;;;;;;;4.58;69.04;99300.19;4961621;28;4605;-89
2022/12/15 01:29:34;;;;;;;;;;;;;;;4.73;68.35;99303.41;4949393;28;4655;-89
2022/12/15 01:32:00;;;;;;;;;;;;;;;4.52;68.94;99311.72;4938643;28;4924;-88
2022/12/15 01:34:27;;;;;;;;;;;;;;;4.62;68.84;99308.59;4949648;28;4707;-90
2022/12/15 01:36:53;;;;;;;;;;;;;;;4.65;68.69;99301.00;4941769;28;4562;-89
2022/12/15 01:39:19;;;;;;;;;;;;;;;4.50;69.13;99305.75;4954496;28;4610;-90
2022/12/15 01:41:44;;;;;;;;;;;;;;;4.86;67.77;99299.88;4954675;28;4425;-88
2022/12/15 01:44:11;;;;;;;;;;;;;;;4.52;69.03;99307.19;4939494;28;4728;-88
2022/12/15 01:46:37;;;;;;;;;;;;;;;4.63;68.79;99319.06;4949518;28;4636;-87
2022/12/15 01:49:03;;;;;;;;;;;;;;;4.55;69.03;99317.44;4952105;28;4734;-89
2022/12/15 01:51:30;;;;;;;;;;;;;;;4.48;69.25;99321.16;4938278;28;4659;-89
2022/12/15 01:53:56;;;;;;;;;;;;;;;4.43;69.46;99326.31;4953632;28;4663;-90
2022/12/15 01:56:22;;;;;;;;;;;;;;;4.49;69.16;99320.13;4936281;28;4794;-89
2022/12/15 01:58:48;;;;;;;;;;;;;;;4.53;69.21;99318.69;4956054;28;4036;-89
2022/12/15 02:01:15;;;;;;;;;;;;;;;4.45;69.21;99313.59;4952702;28;4723;-89
2022/12/15 02:03:41;;;;;;;;;;;;;;;4.62;68.88;99313.91;4933754;28;4481;-90
2022/12/15 02:06:08;;;;;;;;;;;;;;;4.63;68.68;99316.38;4954426;28;4622;-90
2022/12/15 02:08:34;;;;;;;;;;;;;;;4.58;68.90;99313.53;4952860;28;4595;-90
2022/12/15 02:11:00;;;;;;;;;;;;;;;4.46;69.20;99309.88;4951339;28;4681;-90
2022/12/15 02:13:27;;;;;;;;;;;;;;;4.57;68.93;99311.09;4954587;28;4724;-89
2022/12/15 02:15:53;;;;;;;;;;;;;;;4.54;69.01;99305.13;4938500;28;4614;-91
2022/12/15 02:18:19;;;;;;;;;;;;;;;4.57;68.69;99301.25;4953694;28;4538;-91
2022/12/15 02:20:46;;;;;;;;;;;;;;;4.36;69.53;99293.53;4943641;28;4657;-90
2022/12/15 02:23:12;;;;;;;;;;;;;;;4.38;69.89;99304.78;4957911;28;4712;-90
2022/12/15 02:25:38;;;;;;;;;;;;;;;4.50;69.12;99303.94;4954459;28;4740;-91
2022/12/15 02:28:04;;;;;;;;;;;;;;;4.50;68.88;99309.28;4959355;28;4762;-90
2022/12/15 02:30:31;;;;;;;;;;;;;;;4.53;68.80;99316.03;4953731;28;4639;-89
2022/12/15 02:32:57;;;;;;;;;;;;;;;4.53;68.56;99298.19;4945092;28;4357;-91
2022/12/15 02:35:23;;;;;;;;;;;;;;;4.49;69.18;99317.47;4959626;28;4657;-90
2022/12/15 02:37:51;;;;;;;;;;;;;;;4.50;69.24;99308.44;4952739;28;4604;-90
2022/12/15 02:40:17;;;;;;;;;;;;;;;4.44;69.32;99304.78;4956806;28;4633;-90
2022/12/15 02:42:44;;;;;;;;;;;;;;;4.67;68.57;99322.13;4954291;28;4498;-90
2022/12/15 02:45:10;;;;;;;;;;;;;;;4.54;68.63;99310.47;4954472;28;4599;-90
2022/12/15 02:47:36;;;;;;;;;;;;;;;4.46;68.88;99320.56;4955309;28;4608;-90
2022/12/15 02:50:02;;;;;;;;;;;;;;;4.59;68.34;99320.53;4940548;28;4588;-90
2022/12/15 02:52:29;;;;;;;;;;;;;;;4.51;68.95;99324.22;4952338;28;4371;-89
2022/12/15 02:54:57;;;;;;;;;;;;;;;4.61;68.13;99317.63;4953556;28;4499;-90
2022/12/15 02:57:23;;;;;;;;;;;;;;;4.39;69.26;99306.44;4952891;28;4546;-89
2022/12/15 02:59:54;;;;;;;;;;;;;;;4.58;68.58;99313.53;4953142;28;4723;-91
2022/12/15 03:02:20;;;;;;;;;;;;;;;4.47;68.89;99317.69;4954983;28;4694;-92
2022/12/15 03:04:46;;;;;;;;;;;;;;;4.47;69.04;99324.84;4954526;28;4503;-88
2022/12/15 03:07:13;;;;;;;;;;;;;;;4.46;69.12;99329.34;4955579;28;4500;-89
2022/12/15 03:09:39;;;;;;;;;;;;;;;4.45;69.00;99326.91;4941673;28;4497;-90
2022/12/15 03:12:05;;;;;;;;;;;;;;;4.48;68.89;99342.50;4938491;28;4629;-90
2022/12/15 03:14:32;;;;;;;;;;;;;;;4.73;68.24;99339.94;4944419;28;4614;-92
2022/12/15 03:16:58;;;;;;;;;;;;;;;4.50;68.63;99348.41;4956464;28;4615;-90
2022/12/15 03:19:24;;;;;;;;;;;;;;;4.59;68.42;99346.34;4956347;28;4587;-91
2022/12/15 03:21:51;;;;;;;;;;;;;;;4.45;68.88;99342.91;4954267;28;4469;-90
2022/12/15 03:24:17;;;;;;;;;;;;;;;4.46;69.24;99344.53;4942415;28;4709;-92
2022/12/15 03:26:47;;;;;;;;;;;;;;;4.55;68.65;99346.75;4939871;28;4609;-90
2022/12/15 03:29:13;;;;;;;;;;;;;;;4.47;68.94;99348.84;4955877;28;4825;-90
2022/12/15 03:31:39;;;;;;;;;;;;;;;4.47;68.85;99351.50;4941374;28;4626;-90
2022/12/15 03:34:06;;;;;;;;;;;;;;;4.42;69.11;99359.34;4955644;28;4400;-90
2022/12/15 03:36:32;;;;;;;;;;;;;;;4.51;68.66;99358.88;4954245;28;4670;-89
2022/12/15 03:38:59;;;;;;;;;;;;;;;4.44;68.96;99352.78;4940644;28;3813;-90
2022/12/15 03:41:25;;;;;;;;;;;;;;;4.47;68.90;99355.03;4952522;28;4647;-89
2022/12/15 03:43:51;;;;;;;;;;;;;;;4.45;69.16;99354.41;4937725;28;4629;-89
2022/12/15 03:46:17;;;;;;;;;;;;;;;4.42;68.78;99352.16;4953859;28;4558;-89
2022/12/15 03:48:44;;;;;;;;;;;;;;;4.42;68.99;99356.66;4940669;28;4499;-88
2022/12/15 03:51:10;;;;;;;;;;;;;;;4.38;69.27;99358.91;4938776;28;4934;-90
2022/12/15 03:53:36;;;;;;;;;;;;;;;4.26;69.58;99361.38;4955113;28;4668;-89
2022/12/15 03:56:02;;;;;;;;;;;;;;;4.32;69.45;99363.25;4952840;28;4586;-89
2022/12/15 03:58:29;;;;;;;;;;;;;;;4.42;69.17;99364.66;4951301;28;4413;-88
2022/12/15 04:00:55;;;;;;;;;;;;;;;4.66;68.08;99368.50;4955270;28;4471;-88
2022/12/15 04:03:21;;;;;;;;;;;;;;;4.50;68.52;99373.25;4954599;28;4547;-89
2022/12/15 04:05:48;;;;;;;;;;;;;;;4.43;68.98;99377.78;4939564;28;4699;-89
2022/12/15 04:08:14;;;;;;;;;;;;;;;4.53;68.72;99370.19;4955569;28;4706;-89
2022/12/15 04:10:42;;;;;;;;;;;;;;;4.47;68.82;99372.84;4953084;28;4673;-89
2022/12/15 04:13:08;;;;;;;;;;;;;;;4.50;68.77;99378.59;4954154;28;4756;-89
2022/12/15 04:15:35;;;;;;;;;;;;;;;4.47;68.55;99381.69;4932833;28;4786;-89
2022/12/15 04:18:01;;;;;;;;;;;;;;;4.36;69.07;99371.66;4938121;28;4574;-90
2022/12/15 04:20:26;;;;;;;;;;;;;;;4.58;68.49;99377.53;4936985;28;4596;-89
2022/12/15 04:22:53;;;;;;;;;;;;;;;4.38;69.19;99374.91;4954549;28;4557;-88
2022/12/15 05:33:37;;;;;;;;;;;;;;;4.35;69.17;99441.16;4937417;28;4566;-88
2022/12/15 05:36:04;;;;;;;;;;;;;;;4.55;68.35;99444.63;4937141;28;4658;-89
2022/12/15 05:38:30;;;;;;;;;;;;;;;4.44;68.76;99447.91;4954360;28;4552;-90
2022/12/15 05:40:56;;;;;;;;;;;;;;;4.53;68.43;99457.38;4936096;28;4615;-90
2022/12/15 05:43:23;;;;;;;;;;;;;;;4.44;68.65;99445.25;4941823;28;4583;-89
2022/12/15 05:45:49;;;;;;;;;;;;;;;4.57;68.17;99460.44;4937659;28;4624;-90
2022/12/15 05:48:15;;;;;;;;;;;;;;;4.50;68.57;99466.59;4945299;28;4540;-88
2022/12/15 05:50:41;;;;;;;;;;;;;;;4.45;68.79;99462.91;4943947;28;4594;-89
2022/12/15 05:53:08;;;;;;;;;;;;;;;4.54;68.66;99462.47;4960969;28;4650;-88
2022/12/15 05:55:34;;;;;;;;;;;;;;;4.53;68.35;99468.03;4951850;28;4577;-90
2022/12/15 05:58:00;;;;;;;;;;;;;;;4.52;68.60;99467.19;4956866;28;4683;-87
2022/12/15 06:00:27;;;;;;;;;;;;;;;4.53;68.69;99470.69;4954265;28;4422;-88
2022/12/15 06:02:53;;;;;;;;;;;;;;;4.50;68.63;99479.06;4942930;28;4642;-89
2022/12/15 06:05:19;;;;;;;;;;;;;;;4.50;68.51;99482.59;4959311;28;4737;-87
2022/12/15 06:07:45;;;;;;;;;;;;;;;4.56;68.34;99480.94;4944334;28;4652;-90
2022/12/15 06:10:12;;;;;;;;;;;;;;;4.44;68.70;99485.22;4957743;28;4680;-88
2022/12/15 06:12:38;;;;;;;;;;;;;;;4.45;69.02;99485.03;4953316;28;4476;-89
2022/12/15 06:15:05;;;;;;;;;;;;;;;4.27;69.35;99493.66;4955608;28;4570;-87
2022/12/15 06:17:31;;;;;;;;;;;;;;;4.45;69.00;99497.56;4956148;28;5241;-90
2022/12/15 06:19:57;;;;;;;;;;;;;;;4.46;68.88;99505.34;4952547;28;4683;-89
2022/12/15 06:22:24;;;;;;;;;;;;;;;4.41;69.09;99513.16;4955850;28;4549;-87
2022/12/15 06:24:50;;;;;;;;;;;;;;;4.51;68.51;99523.41;4940778;28;4651;-89
2022/12/15 06:27:16;;;;;;;;;;;;;;;4.46;68.83;99521.34;4958078;28;4581;-89
2022/12/15 06:29:44;;;;;;;;;;;;;;;4.51;68.64;99521.56;4953911;28;4693;-87
2022/12/15 06:32:10;;;;;;;;;;;;;;;4.38;68.82;99529.53;4938989;28;4595;-88
2022/12/15 06:34:37;;;;;;;;;;;;;;;4.33;69.05;99522.16;4954624;28;4630;-88
2022/12/15 06:37:03;;;;;;;;;;;;;;;4.62;68.30;99517.47;4934378;28;4559;-89
2022/12/15 06:39:30;;;;;;;;;;;;;;;4.57;68.34;99529.75;4953126;28;4491;-88
2022/12/15 06:41:56;;;;;;;;;;;;;;;4.54;68.18;99529.13;4954882;28;4617;-89
2022/12/15 06:44:22;;;;;;;;;;;;;;;4.53;68.28;99530.19;4939945;28;4827;-89
2022/12/15 06:46:49;;;;;;;;;;;;;;;4.52;68.48;99535.69;4951102;28;4638;-90
2022/12/15 06:49:15;;;;;;;;;;;;;;;4.59;68.24;99525.03;4937996;28;4576;-87
2022/12/15 06:51:42;;;;;;;;;;;;;;;4.57;68.37;99537.75;4950373;28;4574;-89
2022/12/15 06:54:09;;;;;;;;;;;;;;;4.44;68.63;99541.22;4956024;28;4559;-90
2022/12/15 06:56:36;;;;;;;;;;;;;;;4.30;69.38;99549.22;4952897;28;4499;-87
2022/12/15 06:59:02;;;;;;;;;;;;;;;4.58;68.50;99556.22;4954748;28;4516;-89
2022/12/15 07:01:28;;;;;;;;;;;;;;;4.52;68.36;99562.38;4938736;28;4508;-88
2022/12/15 07:03:55;;;;;;;;;;;;;;;4.57;68.27;99564.44;4954776;28;4678;-85
2022/12/15 07:06:21;;;;;;;;;;;;;;;4.34;69.25;99562.97;4955809;28;4488;-86
2022/12/15 07:08:47;;;;;;;;;;;;;;;4.46;68.95;99566.66;4952871;28;4534;-86
2022/12/15 07:11:14;;;;;;;;;;;;;;;4.39;69.04;99579.19;4936299;28;4539;-88
2022/12/15 07:13:40;;;;;;;;;;;;;;;4.29;69.32;99576.06;4951489;28;4602;-88
2022/12/15 07:16:06;;;;;;;;;;;;;;;4.42;68.86;99588.63;4947316;28;4634;-88
2022/12/15 07:18:33;;;;;;;;;;;;;;;4.63;67.89;99590.28;4937692;28;4537;-89
2022/12/15 07:20:59;;;;;;;;;;;;;;;4.44;68.52;99598.06;4931916;28;4701;-86
2022/12/15 07:23:25;;;;;;;;;;;;;;;4.48;68.72;99603.81;4952456;28;4461;-89
2022/12/15 07:25:52;;;;;;;;;;;;;;;4.44;68.79;99613.22;4950103;28;4633;-87
2022/12/15 07:28:18;;;;;;;;;;;;;;;4.60;68.11;99614.69;4952253;28;4628;-87
2022/12/15 07:30:44;;;;;;;;;;;;;;;4.42;68.92;99618.78;4939636;28;5344;-89
2022/12/15 07:33:11;;;;;;;;;;;;;;;4.64;68.05;99624.75;4941644;28;4205;-90
2022/12/15 07:35:37;;;;;;;;;;;;;;;4.52;68.25;99626.38;4954245;28;4128;-86
2022/12/15 07:38:03;;;;;;;;;;;;;;;4.40;68.58;99622.66;4954926;28;4258;-87
2022/12/15 07:40:29;;;;;;;;;;;;;;;4.59;68.28;99616.53;4939587;28;4302;-87
2022/12/15 07:42:56;;;;;;;;;;;;;;;4.41;68.87;99624.28;4938510;28;4784;-87
2022/12/15 07:45:22;;;;;;;;;;;;;;;4.50;68.59;99620.41;4949301;28;4499;-89
2022/12/15 07:47:49;;;;;;;;;;;;;;;4.40;68.67;99612.81;4950176;28;4750;-88
2022/12/15 07:50:15;;;;;;;;;;;;;;;4.45;68.64;99607.69;4932649;28;4536;-88
2022/12/15 07:52:42;;;;;;;;;;;;;;;4.44;68.75;99607.88;4954924;28;4569;-88
2022/12/15 07:55:08;;;;;;;;;;;;;;;4.45;68.33;99610.38;4951761;28;4075;-88
2022/12/15 07:57:34;;;;;;;;;;;;;;;4.39;68.82;99613.84;4950287;28;4073;-88
2022/12/15 08:00:03;;;;;;;;;;;;;;;4.29;69.00;99616.91;4939276;28;4717;-88
2022/12/15 08:02:29;;;;;;;;;;;;;;;4.52;68.36;99640.50;4949463;28;4054;-88
2022/12/15 08:04:55;;;;;;;;;;;;;;;4.40;68.46;99641.31;4955001;28;4130;-87
2022/12/15 08:07:22;;;;;;;;;;;;;;;4.40;68.09;99646.66;4935195;28;4229;-89
2022/12/15 08:09:48;;;;;;;;;;;;;;;4.38;68.82;99654.84;4951448;28;4689;-89
2022/12/15 08:12:15;;;;;;;;;;;;;;;4.44;68.58;99658.53;4950696;28;4641;-89
2022/12/15 08:14:42;;;;;;;;;;;;;;;4.67;68.00;99674.19;4939185;28;4904;-90
2022/12/15 08:17:08;;;;;;;;;;;;;;;4.42;68.54;99665.94;4954057;28;4876;-88
2022/12/15 08:19:35;;;;;;;;;;;;;;;4.36;68.88;99672.91;4954970;28;4832;-88
2022/12/15 08:22:01;;;;;;;;;;;;;;;4.50;68.36;99674.59;4957051;28;4733;-89
2022/12/15 08:24:28;;;;;;;;;;;;;;;4.47;68.53;99669.66;4951565;28;4764;-89
2022/12/15 08:26:54;;;;;;;;;;;;;;;4.39;68.45;99680.50;4941104;28;4767;-89
2022/12/15 08:29:21;;;;;;;;;;;;;;;4.40;68.66;99678.66;4951221;28;4528;-88
2022/12/15 08:31:47;;;;;;;;;;;;;;;4.40;68.67;99675.97;4956798;28;4828;-90
2022/12/15 08:34:13;;;;;;;;;;;;;;;4.48;68.41;99679.28;4939185;28;4740;-88
2022/12/15 08:36:40;;;;;;;;;;;;;;;4.35;68.82;99681.09;4951593;28;4782;-88
2022/12/15 08:39:06;;;;;;;;;;;;;;;4.48;68.47;99686.47;4952444;28;4768;-88
2022/12/15 08:41:32;;;;;;;;;;;;;;;4.42;68.39;99692.59;4950735;28;4864;-89
2022/12/15 08:43:59;;;;;;;;;;;;;;;4.30;68.69;99701.19;4954463;28;4884;-88
2022/12/15 08:46:25;;;;;;;;;;;;;;;4.32;68.82;99695.63;4934399;28;4807;-89
2022/12/15 08:48:52;;;;;;;;;;;;;;;4.25;69.13;99694.78;4936779;28;4536;-90
2022/12/15 08:51:18;;;;;;;;;;;;;;;4.40;68.71;99699.97;4952512;28;4849;-88
2022/12/15 08:53:45;;;;;;;;;;;;;;;4.44;68.44;99693.22;4955852;28;4762;-88
2022/12/15 08:56:11;;;;;;;;;;;;;;;4.38;68.68;99702.81;4941482;28;4757;-88
2022/12/15 08:58:38;;;;;;;;;;;;;;;4.36;68.75;99698.75;4955527;28;4849;-89
2022/12/15 09:01:04;;;;;;;;;;;;;;;4.32;68.36;99704.47;4935612;28;4913;-88
2022/12/15 09:03:31;;;;;;;;;;;;;;;4.24;68.90;99715.31;4935704;28;4835;-90
2022/12/15 09:05:57;;;;;;;;;;;;;;;4.40;68.22;99719.47;4951574;28;4707;-89
2022/12/15 09:08:24;;;;;;;;;;;;;;;4.29;68.84;99723.53;4931836;28;4747;-89
2022/12/15 09:10:50;;;;;;;;;;;;;;;4.25;68.81;99724.94;4949846;28;4833;-88
2022/12/15 09:13:17;;;;;;;;;;;;;;;4.31;68.83;99729.47;4950908;28;4870;-89
2022/12/15 09:15:44;;;;;;;;;;;;;;;4.30;68.75;99733.16;4953280;28;4696;-88
2022/12/15 09:18:10;;;;;;;;;;;;;;;4.30;68.86;99730.50;4937746;28;4751;-87
2022/12/15 09:20:37;;;;;;;;;;;;;;;4.42;68.46;99729.94;4952869;28;4906;-86
2022/12/15 09:23:03;;;;;;;;;;;;;;;4.39;68.28;99725.81;4935105;28;4909;-87
2022/12/15 09:25:29;;;;;;;;;;;;;;;4.33;68.55;99719.44;4955624;28;4699;-89
2022/12/15 09:27:56;;;;;;;;;;;;;;;4.37;68.47;99722.53;4952079;28;4731;-89
2022/12/15 09:30:22;;;;;;;;;;;;;;;4.37;68.54;99724.38;4959392;28;4747;-91
2022/12/15 09:32:49;;;;;;;;;;;;;;;4.35;68.68;99729.88;4946512;28;4040;-89
2022/12/15 09:35:16;;;;;;;;;;;;;;;4.43;68.27;99729.72;4971479;28;1982;-89
2022/12/15 09:37:42;;;;;;;;;;;;;;;4.41;68.22;99734.44;4941455;28;4815;-88
2022/12/15 09:40:08;;;;;;;;;;;;;;;4.39;68.44;99736.50;4957743;28;4819;-89
2022/12/15 09:42:35;;;;;;;;;;;;;;;4.31;68.61;99745.47;4955739;28;3979;-88
2022/12/15 09:45:01;;;;;;;;;;;;;;;4.29;68.67;99749.34;4936966;28;4774;-89
2022/12/15 09:47:27;;;;;;;;;;;;;;;4.32;68.60;99756.94;4941715;28;4650;-89
2022/12/15 09:49:54;;;;;;;;;;;;;;;4.35;68.26;99751.22;4953998;28;4754;-89
2022/12/15 09:52:20;;;;;;;;;;;;;;;4.37;68.58;99751.03;4940702;28;4673;-89
2022/12/15 09:54:47;;;;;;;;;;;;;;;4.30;68.61;99759.00;4954711;28;4670;-81
2022/12/15 09:57:13;;;;;;;;;;;;;;;4.27;68.48;99764.75;4955957;28;4717;-88
2022/12/15 09:59:39;;;;;;;;;;;;;;;4.40;67.91;99767.44;4957604;28;4772;-86
2022/12/15 10:02:05;;;;;;;;;;;;;;;4.39;67.74;99762.34;4954014;28;4718;-87
2022/12/15 10:04:32;;;;;;;;;;;;;;;4.13;68.83;99758.50;4937108;28;4574;-88
2022/12/15 10:06:59;;;;;;;;;;;;;;;4.23;68.51;99760.81;4944437;28;4780;-88
2022/12/15 10:09:26;;;;;;;;;;;;;;;4.20;68.88;99761.19;4955805;28;4543;-88
2022/12/15 10:11:52;;;;;;;;;;;;;;;4.32;68.32;99760.47;4940351;28;4553;-87
2022/12/15 10:14:19;;;;;;;;;;;;;;;4.20;68.69;99763.88;4940497;28;4667;-86
2022/12/15 10:16:45;;;;;;;;;;;;;;;4.32;68.52;99775.59;4940187;28;4696;-87
2022/12/15 10:19:12;;;;;;;;;;;;;;;4.28;68.73;99775.19;4955201;28;4653;-88
2022/12/15 10:21:38;;;;;;;;;;;;;;;4.20;68.94;99769.19;4955074;28;4659;-88
2022/12/15 10:24:04;;;;;;;;;;;;;;;4.18;68.97;99773.91;4954728;28;4523;-88
2022/12/15 10:26:31;;;;;;;;;;;;;;;4.25;68.58;99778.25;4956452;28;4477;-87
2022/12/15 10:28:58;;;;;;;;;;;;;;;4.25;68.63;99780.09;4959660;28;4664;-87
2022/12/15 10:31:25;;;;;;;;;;;;;;;4.14;69.03;99784.13;4954730;28;4623;-88
2022/12/15 10:33:52;;;;;;;;;;;;;;;4.18;68.75;99793.41;4955003;28;4705;-87
2022/12/15 10:36:18;;;;;;;;;;;;;;;4.23;68.56;99795.44;4935615;28;4686;-88
2022/12/15 10:38:46;;;;;;;;;;;;;;;4.32;68.34;99791.59;4939740;28;4752;-88
2022/12/15 10:41:13;;;;;;;;;;;;;;;4.28;68.28;99793.03;4939793;28;4747;-89
2022/12/15 10:43:39;;;;;;;;;;;;;;;4.13;69.05;99795.81;4946426;28;4766;-89
2022/12/15 10:46:05;;;;;;;;;;;;;;;4.15;68.92;99796.47;4971205;28;3835;-89
2022/12/15 10:48:32;;;;;;;;;;;;;;;4.32;68.29;99791.59;4969355;28;1592;-89
2022/12/15 10:50:58;;;;;;;;;;;;;;;4.25;68.80;99791.56;4954510;28;4256;-89
2022/12/15 10:53:24;;;;;;;;;;;;;;;4.19;68.99;99791.53;4973327;28;2274;-89
2022/12/15 10:55:51;;;;;;;;;;;;;;;4.07;69.19;99792.09;4960586;28;2154;-89
2022/12/15 10:58:17;;;;;;;;;;;;;;;4.08;68.96;99795.56;4958432;28;1572;-89
2022/12/15 11:00:45;;;;;;;;;;;;;;;4.17;69.06;99793.56;4971062;28;1558;-89
2022/12/15 11:03:11;;;;;;;;;;;;;;;4.26;68.65;99792.41;4972755;28;4001;-88
2022/12/15 11:05:37;;;;;;;;;;;;;;;4.05;69.26;99796.78;4968939;28;2291;-89
2022/12/15 11:08:04;;;;;;;;;;;;;;;4.13;69.13;99795.81;4972104;28;2543;-89
2022/12/15 11:12:50;;;;;;;;;;;;;;;4.11;68.66;99800.50;4970916;28;2467;-89
2022/12/15 11:13:16;;;;;;;;;;;;;;;4.04;68.94;99803.16;4972497;28;2342;-90
2022/12/15 11:15:42;;;;;;;;;;;;;;;4.13;69.16;99801.16;4953335;28;4982;-89
2022/12/15 11:18:11;;;;;;;;;;;;;;;4.29;68.36;99792.00;4967992;28;4127;-90
2022/12/15 11:20:37;;;;;;;;;;;;;;;4.11;68.82;99792.53;4972514;28;1962;-88
2022/12/15 11:23:04;;;;;;;;;;;;;;;4.07;69.06;99788.63;4972656;28;1174;-90
2022/12/15 11:25:30;;;;;;;;;;;;;;;4.20;68.91;99802.00;4953632;28;2226;-90
2022/12/15 11:27:56;;;;;;;;;;;;;;;4.13;69.28;99803.00;4960279;28;4414;-88
2022/12/15 11:30:22;;;;;;;;;;;;;;;4.12;68.81;99796.00;4935465;28;5107;-90
2022/12/15 11:32:50;;;;;;;;;;;;;;;3.98;69.30;99800.44;4949135;28;4782;-90
2022/12/15 11:35:16;;;;;;;;;;;;;;;3.92;69.67;99798.56;4942561;28;3839;-89
2022/12/15 11:37:43;;;;;;;;;;;;;;;3.98;69.56;99801.25;4948323;28;4751;-89
2022/12/15 11:40:09;;;;;;;;;;;;;;;4.02;69.44;99801.69;4948346;28;4511;-87
2022/12/15 11:42:35;;;;;;;;;;;;;;;4.10;68.92;99804.22;4947234;28;4595;-88
2022/12/15 11:45:02;;;;;;;;;;;;;;;4.15;69.17;99790.28;4949508;28;4630;-88
2022/12/15 11:47:28;;;;;;;;;;;;;;;4.05;69.14;99799.44;4937240;28;4655;-88
2022/12/15 11:49:54;;;;;;;;;;;;;;;4.15;69.07;99798.28;4949757;28;4623;-89
2022/12/15 11:52:20;;;;;;;;;;;;;;;4.43;68.12;99806.22;4929985;28;4548;-89
2022/12/15 11:54:47;;;;;;;;;;;;;;;4.03;69.47;99806.00;4947141;28;4398;-89
2022/12/15 11:57:13;;;;;;;;;;;;;;;4.00;69.35;99804.56;4930713;28;4574;-89
2022/12/15 11:59:39;;;;;;;;;;;;;;;4.01;69.55;99806.19;4933437;28;4544;-88
2022/12/15 12:02:06;;;;;;;;;;;;;;;4.15;68.89;99807.13;4945543;28;4587;-88
2022/12/15 12:04:32;;;;;;;;;;;;;;;4.04;69.65;99805.81;4932860;28;4426;-88
2022/12/15 12:06:59;;;;;;;;;;;;;;;4.01;69.83;99814.19;4949120;28;4675;-89
2022/12/15 12:09:25;;;;;;;;;;;;;;;4.17;68.95;99812.25;4930041;28;4597;-89
2022/12/15 12:11:51;;;;;;;;;;;;;;;4.24;68.48;99810.44;4952468;28;4638;-89
2022/12/15 12:14:17;;;;;;;;;;;;;;;4.14;68.88;99807.31;4953039;28;4489;-90
2022/12/15 12:16:44;;;;;;;;;;;;;;;4.13;68.90;99809.16;4949139;28;4582;-89
2022/12/15 12:19:10;;;;;;;;;;;;;;;3.93;69.84;99801.00;4948790;28;4638;-90
2022/12/15 12:21:36;;;;;;;;;;;;;;;4.05;69.63;99807.44;4944770;28;4354;-90
2022/12/15 12:24:03;;;;;;;;;;;;;;;4.07;69.42;99807.25;4945346;28;4566;-90
2022/12/15 12:26:29;;;;;;;;;;;;;;;4.17;69.12;99821.06;4946829;28;4677;-89
2022/12/15 12:28:57;;;;;;;;;;;;;;;4.01;69.47;99819.53;4944559;28;4641;-90
2022/12/15 12:31:24;;;;;;;;;;;;;;;4.00;69.34;99825.88;4947836;28;4768;-86
2022/12/15 12:33:50;;;;;;;;;;;;;;;4.00;69.30;99817.88;4938296;28;4627;-90
2022/12/15 12:36:17;;;;;;;;;;;;;;;3.99;69.70;99816.22;4952814;28;4522;-91
2022/12/15 12:38:45;;;;;;;;;;;;;;;4.08;69.18;99819.56;4939359;28;4693;-88
2022/12/15 12:41:11;;;;;;;;;;;;;;;4.04;69.65;99827.13;4954156;28;4536;-90
2022/12/15 12:43:38;;;;;;;;;;;;;;;4.02;69.35;99821.16;4955565;28;4611;-91
2022/12/15 12:46:04;;;;;;;;;;;;;;;4.06;69.42;99821.63;4955250;28;4488;-92
2022/12/15 12:48:41;;;;;;;;;;;;;;;;;;;;;
2022/12/15 12:51:18;;;;;;;;;;;;;;;;;;;;;
2022/12/15 12:53:56;;;;;;;;;;;;;;;;;;;;;
2022/12/15 12:56:26;;;;;;;;;;;;;;;4.10;69.65;99823.69;4954243;28;4505;-90
2022/12/15 12:58:52;;;;;;;;;;;;;;;4.02;69.83;99823.81;4955007;28;4501;-90
2022/12/15 13:01:19;;;;;;;;;;;;;;;4.05;69.37;99822.63;4940345;28;4554;-89
2022/12/15 13:03:45;;;;;;;;;;;;;;;4.01;69.65;99824.84;4954354;28;4444;-91
2022/12/15 13:06:12;;;;;;;;;;;;;;;4.06;69.74;99822.44;4952630;28;4725;-91
2022/12/15 13:08:38;;;;;;;;;;;;;;;3.98;69.75;99827.09;4941833;28;3842;-90
2022/12/15 13:11:05;;;;;;;;;;;;;;;3.94;70.13;99837.31;4951312;28;4654;-89
2022/12/15 13:13:31;;;;;;;;;;;;;;;4.05;69.70;99833.28;4954041;28;4382;-89
2022/12/15 13:15:58;;;;;;;;;;;;;;;4.05;69.65;99844.75;4952211;28;4543;-88
2022/12/15 13:18:24;;;;;;;;;;;;;;;4.04;69.66;99853.78;4951041;28;4631;-90
2022/12/15 13:20:51;;;;;;;;;;;;;;;3.99;69.82;99858.03;4940703;28;4633;-90
2022/12/15 13:23:18;;;;;;;;;;;;;;;4.02;69.79;99853.13;4934646;28;4398;-90
2022/12/15 13:25:44;;;;;;;;;;;;;;;3.97;70.21;99852.91;4954435;28;4500;-88
2022/12/15 13:28:17;;;;;;;;;;;;;;;4.01;70.13;99859.50;4951637;28;4558;-89
2022/12/15 13:30:44;;;;;;;;;;;;;;;4.10;69.84;99868.16;4938263;28;4683;-93
2022/12/15 13:33:10;;;;;;;;;;;;;;;4.24;69.27;99864.56;4939636;28;4570;-92
2022/12/15 13:35:36;;;;;;;;;;;;;;;4.10;69.54;99866.31;4953125;28;4230;-92
2022/12/15 13:38:03;;;;;;;;;;;;;;;3.99;70.10;99861.53;4936184;28;4093;-91
2022/12/15 13:40:32;;;;;;;;;;;;;;;4.02;69.74;99854.97;4933144;28;4493;-93
2022/12/15 13:42:58;;;;;;;;;;;;;;;4.19;69.54;99850.19;4937517;28;4323;-91
2022/12/15 13:45:25;;;;;;;;;;;;;;;4.05;69.72;99841.28;4948622;28;4584;-91
2022/12/15 13:47:51;;;;;;;;;;;;;;;4.07;69.91;99831.25;4936429;28;4508;-91
2022/12/15 13:50:18;;;;;;;;;;;;;;;4.17;69.80;99837.03;4950098;28;4642;-91
2022/12/15 13:52:44;;;;;;;;;;;;;;;4.09;69.69;99847.88;4932501;28;4562;-89
2022/12/15 13:55:11;;;;;;;;;;;;;;;4.32;68.81;99856.44;4952051;28;4574;-91
2022/12/15 13:57:37;;;;;;;;;;;;;;;4.24;69.17;99853.91;4951620;28;4214;-91
2022/12/15 14:00:04;;;;;;;;;;;;;;;4.07;69.91;99850.72;4948067;28;4550;-91
2022/12/15 14:02:31;;;;;;;;;;;;;;;4.10;69.64;99855.66;4950183;28;4665;-91
2022/12/15 14:04:57;;;;;;;;;;;;;;;4.19;69.66;99855.53;4954332;28;4504;-90
2022/12/15 14:07:23;;;;;;;;;;;;;;;4.26;69.29;99857.19;4949888;28;4588;-93
2022/12/15 14:09:50;;;;;;;;;;;;;;;4.13;69.45;99853.63;4956380;28;4045;-90
2022/12/15 14:12:16;;;;;;;;;;;;;;;4.05;69.69;99854.59;4957354;28;4672;-89
2022/12/15 14:14:42;;;;;;;;;;;;;;;4.09;69.66;99845.22;4949578;28;4931;-88
2022/12/15 14:17:09;;;;;;;;;;;;;;;4.02;69.56;99841.66;4971417;28;3594;-88
2022/12/15 14:19:35;;;;;;;;;;;;;;;4.04;69.71;99840.44;4972704;28;3543;-87
2022/12/15 14:22:01;;;;;;;;;;;;;;;4.07;69.90;99837.41;4967571;28;2591;-87
2022/12/15 14:24:28;;;;;;;;;;;;;;;4.17;69.31;99836.22;4968675;28;2262;-89
2022/12/15 14:26:54;;;;;;;;;;;;;;;4.10;69.67;99839.66;4959724;28;2392;-89
2022/12/15 14:29:20;;;;;;;;;;;;;;;4.20;69.19;99847.31;4957308;28;2210;-87
2022/12/15 14:31:47;;;;;;;;;;;;;;;4.21;69.28;99845.50;4975323;28;3622;-87
2022/12/15 14:34:14;;;;;;;;;;;;;;;4.17;69.59;99842.38;4958086;28;2287;-86
2022/12/15 14:36:40;;;;;;;;;;;;;;;4.11;69.36;99840.50;4951954;28;2277;-88
2022/12/15 14:39:06;;;;;;;;;;;;;;;4.08;69.41;99846.22;4959701;28;2842;-87
2022/12/15 14:41:32;;;;;;;;;;;;;;;4.01;69.77;99845.34;4961981;28;2606;-88
2022/12/15 14:43:59;;;;;;;;;;;;;;;4.08;69.68;99849.69;4970372;28;2598;-89
2022/12/15 14:46:25;;;;;;;;;;;;;;;4.17;69.17;99849.56;4962520;28;2345;-87
2022/12/15 14:48:51;;;;;;;;;;;;;;;4.20;69.24;99865.16;4960781;28;2614;-87
2022/12/15 14:51:18;;;;;;;;;;;;;;;4.21;69.55;99872.16;4970599;28;2554;-88
2022/12/15 14:53:44;;;;;;;;;;;;;;;4.11;69.53;99867.13;4942701;28;4765;-88
2022/12/15 14:56:10;;;;;;;;;;;;;;;4.20;69.55;99886.47;4936470;28;4702;-88
2022/12/15 14:58:37;;;;;;;;;;;;;;;4.17;69.27;99890.34;4955437;28;4713;-88
2022/12/15 15:01:06;;;;;;;;;;;;;;;4.09;69.60;99899.34;4952866;28;4751;-87
2022/12/15 15:03:32;;;;;;;;;;;;;;;4.04;69.87;99898.25;4951461;28;4638;-88
2022/12/15 15:05:58;;;;;;;;;;;;;;;4.22;69.34;99906.59;4950256;28;4461;-88
2022/12/15 15:08:25;;;;;;;;;;;;;;;4.14;69.34;99905.91;4943568;28;4467;-86
2022/12/15 15:10:51;;;;;;;;;;;;;;;4.14;69.75;99911.25;4936688;28;4767;-89
2022/12/15 15:13:17;;;;;;;;;;;;;;;4.22;68.91;99922.59;4932056;28;4750;-88
2022/12/15 15:15:44;;;;;;;;;;;;;;;4.33;68.96;99922.06;4929065;28;4854;-87
2022/12/15 15:18:10;;;;;;;;;;;;;;;4.38;68.53;99923.31;4930866;28;4697;-89
2022/12/15 15:20:37;;;;;;;;;;;;;;;4.20;69.29;99927.28;4946002;28;4530;-90
2022/12/15 15:23:03;;;;;;;;;;;;;;;4.14;69.31;99922.72;4935856;28;4611;-88
2022/12/15 15:25:30;;;;;;;;;;;;;;;4.17;69.35;99925.00;4946196;28;4527;-88